Time;durP1;ratioP1;P1;durP2;ratioP2;P2;SDS_P1;SDS_P2;PMS_P1;PMS_P2;Temp;Humidity;BMP_temperature;BMP_pressure;BME280_temperature;BME280_humidity;BME280_pressure;Samples;Min_cycle;Max_cycle;Signal;HPM_P1;HPM_P2
2021/08/14 00:01:14;;;;;;;;;7.00;5.00;;;;;;;;5164950;27;45391;-76
2021/08/14 00:03:40;;;;;;;;;5.00;4.00;;;;;;;;5164812;27;46158;-76
2021/08/14 00:06:05;;;;;;;;;6.33;6.33;;;;;;;;5164842;27;45338;-76
2021/08/14 00:08:30;;;;;;;;;5.67;5.00;;;;;;;;5164759;27;45277;-76
2021/08/14 00:10:56;;;;;;;;;1.67;0.67;;;;;;;;5164611;27;45307;-76
2021/08/14 00:13:21;;;;;;;;;5.00;4.33;;;;;;;;5164657;27;45588;-76
2021/08/14 00:15:46;;;;;;;;;4.00;4.00;;;;;;;;5164691;27;45288;-76
2021/08/14 00:18:12;;;;;;;;;4.67;4.00;;;;;;;;5164539;27;45465;-76
2021/08/14 00:20:37;;;;;;;;;4.00;4.00;;;;;;;;5164565;27;45275;-76
2021/08/14 00:23:02;;;;;;;;;4.33;4.33;;;;;;;;5163990;27;45316;-76
2021/08/14 00:25:28;;;;;;;;;6.67;6.33;;;;;;;;5164492;27;45300;-76
2021/08/14 00:27:54;;;;;;;;;5.00;4.33;;;;;;;;5164630;27;45473;-76
2021/08/14 00:30:19;;;;;;;;;6.67;5.33;;;;;;;;5164204;27;45340;-76
2021/08/14 00:32:44;;;;;;;;;6.00;4.67;;;;;;;;5164279;27;45621;-76
2021/08/14 00:35:10;;;;;;;;;7.67;7.67;;;;;;;;5164335;27;45324;-76
2021/08/14 00:37:36;;;;;;;;;5.00;5.00;;;;;;;;5164180;27;45266;-76
2021/08/14 00:40:01;;;;;;;;;5.00;5.00;;;;;;;;5163886;27;45214;-76
2021/08/14 00:42:26;;;;;;;;;6.67;4.67;;;;;;;;5164244;27;45983;-76
2021/08/14 00:44:52;;;;;;;;;3.67;3.67;;;;;;;;5164200;27;45300;-76
2021/08/14 00:47:22;;;;;;;;;5.67;5.67;;;;;;;;5164259;27;45305;-76
2021/08/14 00:49:47;;;;;;;;;5.00;4.00;;;;;;;;5164157;27;45278;-76
2021/08/14 00:52:13;;;;;;;;;5.33;4.00;;;;;;;;5163711;27;46323;-77
2021/08/14 00:54:38;;;;;;;;;6.00;5.00;;;;;;;;5163875;27;45347;-76
2021/08/14 00:57:04;;;;;;;;;5.00;5.00;;;;;;;;5164280;27;45334;-77
2021/08/14 00:59:30;;;;;;;;;7.67;6.33;;;;;;;;5162542;27;45301;-77
2021/08/14 01:01:55;;;;;;;;;5.67;5.67;;;;;;;;5163909;27;46029;-76
2021/08/14 01:04:22;;;;;;;;;8.00;4.00;;;;;;;;5163846;27;45284;-76
2021/08/14 01:06:48;;;;;;;;;5.00;4.00;;;;;;;;5163921;27;45266;-77
2021/08/14 01:09:13;;;;;;;;;5.00;5.00;;;;;;;;5163553;27;45466;-76
2021/08/14 01:11:39;;;;;;;;;6.67;5.33;;;;;;;;5163549;27;45990;-76
2021/08/14 01:14:06;;;;;;;;;6.00;6.00;;;;;;;;5163366;27;45320;-76
2021/08/14 01:16:32;;;;;;;;;3.67;3.67;;;;;;;;5163770;27;45359;-76
2021/08/14 01:18:57;;;;;;;;;5.00;4.00;;;;;;;;5163402;27;45306;-76
2021/08/14 01:21:23;;;;;;;;;5.00;5.00;;;;;;;;5163392;27;46060;-76
2021/08/14 01:23:50;;;;;;;;;7.67;5.33;;;;;;;;5163046;27;45388;-76
2021/08/14 01:26:16;;;;;;;;;6.00;6.00;;;;;;;;5163795;27;45341;-76
2021/08/14 01:28:42;;;;;;;;;4.00;4.00;;;;;;;;5163403;27;45282;-76
2021/08/14 01:31:09;;;;;;;;;4.00;4.00;;;;;;;;5163142;27;45283;-76
2021/08/14 01:33:36;;;;;;;;;5.33;4.33;;;;;;;;5163367;27;45286;-76
2021/08/14 01:36:02;;;;;;;;;8.00;7.67;;;;;;;;5163546;27;45363;-77
2021/08/14 01:38:27;;;;;;;;;5.33;5.33;;;;;;;;5163024;27;45319;-77
2021/08/14 01:40:52;;;;;;;;;4.67;4.67;;;;;;;;5144286;27;45351;-77
2021/08/14 01:43:20;;;;;;;;;5.67;5.67;;;;;;;;5163343;27;45332;-76
2021/08/14 01:45:45;;;;;;;;;4.67;3.67;;;;;;;;5144583;27;45223;-76
2021/08/14 01:48:10;;;;;;;;;3.00;3.00;;;;;;;;5163186;27;45239;-76
2021/08/14 01:50:36;;;;;;;;;6.00;5.00;;;;;;;;5163120;27;46053;-76
2021/08/14 01:53:01;;;;;;;;;6.00;5.67;;;;;;;;5162853;27;45267;-77
2021/08/14 01:55:26;;;;;;;;;4.00;4.00;;;;;;;;5163239;27;45272;-76
2021/08/14 01:57:52;;;;;;;;;3.00;3.00;;;;;;;;5163000;27;45501;-76
2021/08/14 02:00:17;;;;;;;;;6.67;5.00;;;;;;;;5162932;27;45909;-76
2021/08/14 02:02:42;;;;;;;;;7.67;6.33;;;;;;;;5163008;27;45287;-76
2021/08/14 02:05:08;;;;;;;;;6.00;4.00;;;;;;;;5163045;27;45718;-77
2021/08/14 02:07:33;;;;;;;;;7.33;6.00;;;;;;;;5162577;27;45553;-76
2021/08/14 02:09:59;;;;;;;;;6.00;6.00;;;;;;;;5162533;27;46361;-76
2021/08/14 02:12:24;;;;;;;;;5.67;4.00;;;;;;;;5162477;27;45254;-76
2021/08/14 02:14:49;;;;;;;;;4.33;3.67;;;;;;;;5163092;27;45183;-77
2021/08/14 02:17:15;;;;;;;;;6.00;6.00;;;;;;;;5143752;27;45851;-76
2021/08/14 02:19:40;;;;;;;;;3.67;3.67;;;;;;;;5162708;27;46175;-76
2021/08/14 02:22:05;;;;;;;;;5.00;5.00;;;;;;;;5162490;27;45379;-76
2021/08/14 02:24:30;;;;;;;;;5.33;5.33;;;;;;;;5162461;27;45300;-76
2021/08/14 02:26:56;;;;;;;;;3.00;3.00;;;;;;;;5162603;27;45310;-77
2021/08/14 02:29:21;;;;;;;;;5.33;4.00;;;;;;;;5162442;27;45644;-76
2021/08/14 02:31:47;;;;;;;;;5.00;5.00;;;;;;;;5162400;27;45269;-76
2021/08/14 02:34:12;;;;;;;;;7.33;6.67;;;;;;;;5162828;27;45266;-76
2021/08/14 02:36:37;;;;;;;;;7.67;5.67;;;;;;;;5162254;27;45320;-76
2021/08/14 02:39:03;;;;;;;;;7.00;5.00;;;;;;;;5162173;27;45331;-76
2021/08/14 02:41:28;;;;;;;;;6.00;5.67;;;;;;;;5162375;27;45357;-76
2021/08/14 02:43:54;;;;;;;;;5.67;5.33;;;;;;;;5162579;27;45235;-76
2021/08/14 02:46:19;;;;;;;;;4.67;4.00;;;;;;;;5162397;27;45259;-76
2021/08/14 02:48:45;;;;;;;;;6.00;5.67;;;;;;;;5162410;27;46188;-76
2021/08/14 02:51:10;;;;;;;;;5.00;5.00;;;;;;;;5162230;27;45308;-76
2021/08/14 02:53:35;;;;;;;;;5.00;5.00;;;;;;;;5162161;27;45312;-76
2021/08/14 02:56:01;;;;;;;;;5.33;4.00;;;;;;;;5162218;27;45378;-76
2021/08/14 02:58:27;;;;;;;;;5.33;5.33;;;;;;;;5143342;27;46693;-76
2021/08/14 03:00:53;;;;;;;;;7.67;7.00;;;;;;;;5162136;27;45367;-76
2021/08/14 03:03:18;;;;;;;;;8.67;7.00;;;;;;;;5143399;27;45262;-76
2021/08/14 03:05:43;;;;;;;;;4.67;4.00;;;;;;;;5162136;27;45326;-76
2021/08/14 03:08:09;;;;;;;;;5.67;4.00;;;;;;;;5161740;27;46059;-76
2021/08/14 03:10:36;;;;;;;;;6.00;5.00;;;;;;;;5162237;27;45648;-76
2021/08/14 03:13:01;;;;;;;;;4.00;4.00;;;;;;;;5162054;27;45283;-76
2021/08/14 03:15:26;;;;;;;;;4.67;4.67;;;;;;;;5161940;27;45266;-76
2021/08/14 03:17:53;;;;;;;;;4.00;4.00;;;;;;;;5161665;27;46059;-76
2021/08/14 03:20:18;;;;;;;;;6.00;6.00;;;;;;;;5144204;27;45310;-76
2021/08/14 03:22:43;;;;;;;;;5.67;5.67;;;;;;;;5120823;27;45387;-76
2021/08/14 03:25:09;;;;;;;;;6.33;6.33;;;;;;;;5123646;27;45492;-76
2021/08/14 03:27:34;;;;;;;;;6.00;6.00;;;;;;;;5105026;27;45520;-76
2021/08/14 03:30:00;;;;;;;;;7.00;6.33;;;;;;;;5135704;27;45305;-76
2021/08/14 03:32:25;;;;;;;;;6.67;5.67;;;;;;;;5165501;27;45498;-76
2021/08/14 03:34:50;;;;;;;;;6.00;5.00;;;;;;;;5165303;27;45471;-76
2021/08/14 03:37:15;;;;;;;;;5.00;5.00;;;;;;;;5164999;27;45288;-76
2021/08/14 03:39:41;;;;;;;;;7.33;7.33;;;;;;;;5165074;27;45329;-76
2021/08/14 03:42:06;;;;;;;;;6.00;4.33;;;;;;;;5165462;27;45311;-76
2021/08/14 03:44:31;;;;;;;;;4.00;4.00;;;;;;;;5165093;27;45498;-76
2021/08/14 03:46:57;;;;;;;;;5.33;5.33;;;;;;;;5165131;27;45917;-76
2021/08/14 03:49:22;;;;;;;;;5.67;5.67;;;;;;;;5165017;27;45277;-76
2021/08/14 03:51:47;;;;;;;;;5.00;5.00;;;;;;;;5165139;27;45270;-76
2021/08/14 03:54:13;;;;;;;;;3.00;3.00;;;;;;;;5164845;27;45451;-76
2021/08/14 03:56:38;;;;;;;;;4.67;4.67;;;;;;;;5164944;27;45212;-76
2021/08/14 03:59:03;;;;;;;;;5.67;5.67;;;;;;;;5164978;27;45368;-76
2021/08/14 04:01:29;;;;;;;;;6.00;5.00;;;;;;;;5162230;27;45309;-76
2021/08/14 04:03:54;;;;;;;;;6.00;6.00;;;;;;;;5143954;27;45319;-76
2021/08/14 04:06:19;;;;;;;;;4.67;4.67;;;;;;;;5143734;27;45972;-76
2021/08/14 04:08:45;;;;;;;;;5.33;5.33;;;;;;;;5143716;27;45336;-76
2021/08/14 04:11:10;;;;;;;;;7.33;7.00;;;;;;;;5143916;27;45333;-76
2021/08/14 04:13:36;;;;;;;;;6.67;5.67;;;;;;;;5143633;27;45277;-76
2021/08/14 04:16:01;;;;;;;;;9.33;7.33;;;;;;;;5143694;27;46142;-76
2021/08/14 04:18:27;;;;;;;;;5.00;5.00;;;;;;;;5156503;27;45344;-76
2021/08/14 04:20:52;;;;;;;;;7.33;6.33;;;;;;;;5164805;27;45316;-76
2021/08/14 04:23:18;;;;;;;;;7.00;5.00;;;;;;;;5164140;27;45446;-76
2021/08/14 04:25:43;;;;;;;;;4.67;4.67;;;;;;;;5164472;27;45994;-76
2021/08/14 04:28:08;;;;;;;;;6.67;6.67;;;;;;;;5164564;27;45362;-76
2021/08/14 04:30:34;;;;;;;;;6.33;6.00;;;;;;;;5164527;27;45357;-75
2021/08/14 04:32:59;;;;;;;;;7.00;5.33;;;;;;;;5164204;27;45331;-76
2021/08/14 04:35:24;;;;;;;;;6.67;6.67;;;;;;;;5164231;27;46621;-75
2021/08/14 04:37:50;;;;;;;;;5.00;5.00;;;;;;;;5164193;27;45404;-75
2021/08/14 04:40:15;;;;;;;;;7.67;6.00;;;;;;;;5145394;27;45478;-75
2021/08/14 04:42:41;;;;;;;;;6.33;5.33;;;;;;;;5164331;27;45270;-75
2021/08/14 04:45:09;;;;;;;;;5.67;5.67;;;;;;;;5164129;27;46076;-75
2021/08/14 04:47:34;;;;;;;;;5.33;5.00;;;;;;;;5164311;27;45283;-75
2021/08/14 04:50:00;;;;;;;;;8.00;6.33;;;;;;;;5164287;27;45206;-75
2021/08/14 04:52:25;;;;;;;;;6.33;6.00;;;;;;;;5163787;27;45331;-75
2021/08/14 04:54:51;;;;;;;;;8.00;7.00;;;;;;;;5164044;27;45298;-75
2021/08/14 04:57:16;;;;;;;;;5.67;4.33;;;;;;;;5163974;27;45295;-76
2021/08/14 04:59:42;;;;;;;;;5.67;4.67;;;;;;;;5164245;27;45312;-76
2021/08/14 05:02:07;;;;;;;;;6.33;6.33;;;;;;;;5163842;27;45356;-75
2021/08/14 05:04:32;;;;;;;;;8.50;7.00;;;;;;;;5163911;27;45387;-76
2021/08/14 05:07:00;;;;;;;;;7.33;6.33;;;;;;;;5163848;27;45373;-76
2021/08/14 05:09:25;;;;;;;;;6.00;5.00;;;;;;;;5163757;27;45376;-76
2021/08/14 05:11:51;;;;;;;;;7.00;6.00;;;;;;;;5163599;27;45248;-75
2021/08/14 05:14:16;;;;;;;;;7.00;5.33;;;;;;;;5163646;27;46099;-75
2021/08/14 05:16:41;;;;;;;;;4.00;4.00;;;;;;;;5163484;27;45351;-76
2021/08/14 05:19:07;;;;;;;;;5.33;5.33;;;;;;;;5163653;27;45294;-75
2021/08/14 05:21:33;;;;;;;;;5.67;5.33;;;;;;;;5163452;27;45297;-76
2021/08/14 05:23:59;;;;;;;;;4.67;4.67;;;;;;;;5163163;27;45397;-76
2021/08/14 05:26:24;;;;;;;;;6.00;5.00;;;;;;;;5163474;27;45211;-75
2021/08/14 05:28:49;;;;;;;;;7.67;7.00;;;;;;;;5163787;27;45221;-75
2021/08/14 05:31:15;;;;;;;;;6.00;6.00;;;;;;;;5163243;27;45494;-74
2021/08/14 05:33:40;;;;;;;;;6.33;6.00;;;;;;;;5163334;27;45983;-77
2021/08/14 05:36:08;;;;;;;;;5.67;5.67;;;;;;;;5163520;27;45332;-74
2021/08/14 05:38:34;;;;;;;;;6.67;6.00;;;;;;;;5163220;27;45318;-74
2021/08/14 05:40:59;;;;;;;;;5.00;4.67;;;;;;;;5163239;27;45340;-74
2021/08/14 05:43:24;;;;;;;;;9.00;6.00;;;;;;;;5163226;27;45353;-73
2021/08/14 05:45:50;;;;;;;;;5.67;5.33;;;;;;;;5162194;27;45275;-73
2021/08/14 05:48:17;;;;;;;;;5.00;5.00;;;;;;;;5161730;27;45431;-76
2021/08/14 05:50:43;;;;;;;;;7.33;4.67;;;;;;;;5161666;27;45269;-76
2021/08/14 05:53:08;;;;;;;;;6.00;5.33;;;;;;;;5161061;27;46694;-76
2021/08/14 05:55:35;;;;;;;;;3.33;3.33;;;;;;;;5161417;27;45367;-73
2021/08/14 05:58:00;;;;;;;;;5.67;5.67;;;;;;;;5161699;27;45487;-77
2021/08/14 06:00:25;;;;;;;;;8.00;7.00;;;;;;;;5161013;27;45367;-77
2021/08/14 06:02:50;;;;;;;;;7.00;5.67;;;;;;;;5160898;27;45337;-78
2021/08/14 06:05:16;;;;;;;;;5.67;4.33;;;;;;;;5159636;27;45360;-77
2021/08/14 06:07:41;;;;;;;;;3.67;3.00;;;;;;;;5160895;27;45895;-77
2021/08/14 06:10:07;;;;;;;;;5.00;5.00;;;;;;;;5160429;27;45471;-77
2021/08/14 06:12:32;;;;;;;;;5.67;5.67;;;;;;;;5160014;27;46111;-79
2021/08/14 06:14:58;;;;;;;;;4.33;4.33;;;;;;;;5162018;27;45341;-76
2021/08/14 06:17:23;;;;;;;;;5.67;4.33;;;;;;;;5161819;27;45364;-76
2021/08/14 06:19:49;;;;;;;;;7.00;5.33;;;;;;;;5161958;27;45381;-77
2021/08/14 06:22:14;;;;;;;;;5.67;4.67;;;;;;;;5158748;27;45859;-76
2021/08/14 06:24:40;;;;;;;;;10.67;5.33;;;;;;;;5161312;27;45348;-76
2021/08/14 06:27:05;;;;;;;;;3.33;3.33;;;;;;;;5144790;27;45309;-75
2021/08/14 06:29:30;;;;;;;;;4.67;4.67;;;;;;;;5143863;27;45362;-74
2021/08/14 06:31:56;;;;;;;;;9.33;7.00;;;;;;;;5151989;27;45303;-75
2021/08/14 06:34:22;;;;;;;;;7.67;6.00;;;;;;;;5162209;27;45345;-77
2021/08/14 06:36:47;;;;;;;;;5.00;5.00;;;;;;;;5162024;27;45498;-77
2021/08/14 06:39:12;;;;;;;;;10.67;6.00;;;;;;;;5162027;27;45275;-77
2021/08/14 06:41:38;;;;;;;;;5.33;5.33;;;;;;;;5161513;27;46212;-78
2021/08/14 06:44:03;;;;;;;;;7.00;7.00;;;;;;;;5158698;27;45307;-77
2021/08/14 06:46:28;;;;;;;;;4.67;4.00;;;;;;;;5161069;27;45416;-79
2021/08/14 06:48:54;;;;;;;;;4.00;4.00;;;;;;;;5148888;27;45470;-80
2021/08/14 06:51:19;;;;;;;;;8.33;5.00;;;;;;;;5160770;27;45256;-79
2021/08/14 06:53:44;;;;;;;;;5.00;4.67;;;;;;;;5158181;27;45245;-79
2021/08/14 06:56:10;;;;;;;;;5.00;5.00;;;;;;;;5161371;27;45211;-79
2021/08/14 06:58:35;;;;;;;;;4.33;4.33;;;;;;;;5165058;27;45345;-79
2021/08/14 07:01:01;;;;;;;;;5.00;5.00;;;;;;;;5164177;27;45278;-78
2021/08/14 07:03:26;;;;;;;;;5.67;5.67;;;;;;;;5164619;27;45294;-78
2021/08/14 07:05:51;;;;;;;;;3.00;3.00;;;;;;;;5164765;27;45433;-78
2021/08/14 07:08:17;;;;;;;;;3.67;3.67;;;;;;;;5164369;27;45349;-79
2021/08/14 07:10:42;;;;;;;;;5.00;5.00;;;;;;;;5164170;27;45721;-80
2021/08/14 07:13:07;;;;;;;;;6.67;6.00;;;;;;;;5164206;27;45838;-80
2021/08/14 07:15:33;;;;;;;;;7.67;5.00;;;;;;;;5164251;27;45353;-81
2021/08/14 07:17:58;;;;;;;;;5.67;4.00;;;;;;;;5161262;27;45345;-81
2021/08/14 07:20:24;;;;;;;;;6.67;5.67;;;;;;;;5164271;27;45358;-81
2021/08/14 07:22:49;;;;;;;;;6.67;4.33;;;;;;;;5164018;27;45380;-80
2021/08/14 07:25:14;;;;;;;;;20.33;20.33;;;;;;;;5165419;27;45360;-81
2021/08/14 07:27:40;;;;;;;;;3.00;3.00;;;;;;;;5146154;27;45353;-82
2021/08/14 07:30:06;;;;;;;;;4.00;3.67;;;;;;;;5164531;27;46148;-82
2021/08/14 07:32:31;;;;;;;;;4.33;4.33;;;;;;;;5145691;27;45602;-82
2021/08/14 07:34:56;;;;;;;;;4.00;4.00;;;;;;;;5145644;27;46054;-82
2021/08/14 07:37:22;;;;;;;;;4.33;4.33;;;;;;;;5164524;27;45309;-80
2021/08/14 07:39:47;;;;;;;;;4.33;3.33;;;;;;;;5164716;27;45301;-80
2021/08/14 07:42:12;;;;;;;;;5.00;4.00;;;;;;;;5161913;27;45250;-78
2021/08/14 07:44:38;;;;;;;;;5.00;5.00;;;;;;;;5151444;27;45254;-80
2021/08/14 07:47:03;;;;;;;;;8.33;5.33;;;;;;;;5144032;27;45452;-79
2021/08/14 07:49:28;;;;;;;;;7.00;4.67;;;;;;;;5158577;27;45901;-79
2021/08/14 07:51:54;;;;;;;;;4.00;4.00;;;;;;;;5163411;27;45282;-79
2021/08/14 07:54:19;;;;;;;;;4.33;3.33;;;;;;;;5164373;27;45161;-80
2021/08/14 07:56:44;;;;;;;;;7.67;5.00;;;;;;;;5164214;27;45209;-80
2021/08/14 07:59:10;;;;;;;;;5.33;3.33;;;;;;;;5164269;27;45162;-80
2021/08/14 08:01:35;;;;;;;;;5.33;4.33;;;;;;;;5164254;27;45671;-82
2021/08/14 08:04:00;;;;;;;;;6.33;4.00;;;;;;;;5164490;27;45259;-79
2021/08/14 08:06:26;;;;;;;;;3.67;3.67;;;;;;;;5164358;27;45287;-82
2021/08/14 08:08:51;;;;;;;;;6.33;5.33;;;;;;;;5163658;27;46253;-79
2021/08/14 08:11:16;;;;;;;;;8.33;6.00;;;;;;;;5164874;27;45370;-79
2021/08/14 08:13:42;;;;;;;;;4.00;4.00;;;;;;;;5164874;27;45443;-80
2021/08/14 08:16:07;;;;;;;;;5.67;5.67;;;;;;;;5163907;27;45529;-79
2021/08/14 08:18:32;;;;;;;;;7.00;4.67;;;;;;;;5153948;27;45489;-78
2021/08/14 08:20:58;;;;;;;;;5.00;4.00;;;;;;;;5152943;27;45304;-79
2021/08/14 08:23:23;;;;;;;;;4.67;4.67;;;;;;;;5152017;27;45295;-79
2021/08/14 08:25:48;;;;;;;;;6.00;5.00;;;;;;;;5151729;27;45492;-78
2021/08/14 08:28:18;;;;;;;;;4.33;4.00;;;;;;;;5153417;27;45882;-77
2021/08/14 08:30:44;;;;;;;;;5.00;5.00;;;;;;;;5155119;27;45434;-77
2021/08/14 08:33:09;;;;;;;;;2.67;2.00;;;;;;;;5150394;27;45441;-77
2021/08/14 08:35:35;;;;;;;;;4.33;3.67;;;;;;;;5153010;27;45404;-78
2021/08/14 08:38:00;;;;;;;;;3.00;3.00;;;;;;;;5157028;27;45889;-78
2021/08/14 08:40:27;;;;;;;;;3.33;3.33;;;;;;;;5163648;27;45322;-78
2021/08/14 08:42:52;;;;;;;;;6.00;5.67;;;;;;;;5162363;27;45355;-78
2021/08/14 08:45:19;;;;;;;;;0.00;0.00;;;;;;;;5163946;27;45493;-75
2021/08/14 08:47:45;;;;;;;;;3.67;3.33;;;;;;;;5164174;27;45306;-79
2021/08/14 08:50:12;;;;;;;;;6.33;4.33;;;;;;;;5164004;27;45176;-80
2021/08/14 08:52:37;;;;;;;;;5.67;5.67;;;;;;;;5164697;27;45380;-79
2021/08/14 08:55:02;;;;;;;;;11.33;10.00;;;;;;;;5165781;27;45328;-79
2021/08/14 08:57:28;;;;;;;;;26.33;24.00;;;;;;;;5163525;27;45265;-80
2021/08/14 08:59:53;;;;;;;;;9.67;7.67;;;;;;;;5165371;27;45270;-80
2021/08/14 09:02:21;;;;;;;;;6.00;6.00;;;;;;;;5145446;27;45424;-80
2021/08/14 09:04:47;;;;;;;;;5.00;5.00;;;;;;;;5163892;27;45318;-81
2021/08/14 09:07:26;;;;;;;;;6.33;5.00;;;;;;;;5163292;27;45466;-80
2021/08/14 09:09:56;;;;;;;;;7.67;4.33;;;;;;;;5162560;27;45302;-80
2021/08/14 09:12:28;;;;;;;;;5.67;3.00;;;;;;;;5160491;27;45507;-81
2021/08/14 09:14:53;;;;;;;;;4.00;4.00;;;;;;;;5161072;27;45292;-80
2021/08/14 09:17:24;;;;;;;;;5.00;5.00;;;;;;;;5162708;27;45248;-79
2021/08/14 09:19:50;;;;;;;;;4.33;4.33;;;;;;;;5155775;27;45307;-80
2021/08/14 09:22:20;;;;;;;;;5.00;4.33;;;;;;;;5152605;27;45250;-81
2021/08/14 09:24:46;;;;;;;;;6.33;5.00;;;;;;;;5150487;27;45404;-80
2021/08/14 09:27:15;;;;;;;;;3.67;3.67;;;;;;;;5160322;27;45554;-81
2021/08/14 09:29:41;;;;;;;;;4.67;4.67;;;;;;;;5161372;27;45355;-80
2021/08/14 09:32:08;;;;;;;;;5.00;4.00;;;;;;;;5162138;27;45327;-80
2021/08/14 09:34:38;;;;;;;;;6.00;5.00;;;;;;;;5158105;27;45357;-80
2021/08/14 09:37:08;;;;;;;;;6.00;5.67;;;;;;;;5150216;27;46258;-80
2021/08/14 09:39:47;;;;;;;;;6.00;5.00;;;;;;;;5151850;27;46503;-81
2021/08/14 09:42:13;;;;;;;;;4.67;4.00;;;;;;;;5153210;27;45270;-80
2021/08/14 09:44:38;;;;;;;;;4.33;4.00;;;;;;;;5156579;27;45337;-81
2021/08/14 09:47:11;;;;;;;;;9.33;5.67;;;;;;;;5153258;27;45934;-78
2021/08/14 09:49:49;;;;;;;;;4.67;4.67;;;;;;;;5156136;27;45359;-79
2021/08/14 09:52:18;;;;;;;;;7.67;6.00;;;;;;;;5145078;27;45487;-79
2021/08/14 09:54:43;;;;;;;;;8.00;4.67;;;;;;;;5153888;27;45352;-79
2021/08/14 09:57:19;;;;;;;;;5.33;5.00;;;;;;;;5156985;27;45414;-80
2021/08/14 09:59:47;;;;;;;;;5.00;4.33;;;;;;;;5141873;27;45203;-80
2021/08/14 10:02:17;;;;;;;;;6.33;6.00;;;;;;;;5162501;27;45666;-79
2021/08/14 10:04:44;;;;;;;;;5.67;5.67;;;;;;;;5162337;27;45393;-79
2021/08/14 10:07:10;;;;;;;;;7.67;7.00;;;;;;;;5162455;27;46062;-81
2021/08/14 10:09:35;;;;;;;;;6.67;5.00;;;;;;;;5162125;27;45264;-82
2021/08/14 10:12:01;;;;;;;;;8.00;6.00;;;;;;;;5161639;27;45632;-80
2021/08/14 10:14:26;;;;;;;;;8.00;8.00;;;;;;;;5159434;27;45542;-80
2021/08/14 10:16:52;;;;;;;;;9.33;6.00;;;;;;;;5161754;27;45263;-78
2021/08/14 10:19:18;;;;;;;;;7.00;7.00;;;;;;;;5160589;27;45442;-78
2021/08/14 10:21:43;;;;;;;;;8.67;5.67;;;;;;;;5161455;27;45371;-79
2021/08/14 10:24:09;;;;;;;;;7.00;6.67;;;;;;;;5161540;27;45595;-78
2021/08/14 10:26:34;;;;;;;;;5.67;5.33;;;;;;;;5162640;27;45319;-78
2021/08/14 10:29:00;;;;;;;;;8.00;6.00;;;;;;;;5161409;27;45314;-79
2021/08/14 10:31:31;;;;;;;;;5.33;5.33;;;;;;;;5162887;27;45340;-79
2021/08/14 10:34:05;;;;;;;;;7.00;7.00;;;;;;;;5169391;27;45552;-78
2021/08/14 10:36:30;;;;;;;;;5.33;5.33;;;;;;;;5169277;27;46677;-78
2021/08/14 10:38:57;;;;;;;;;6.33;5.00;;;;;;;;5169251;27;45303;-78
2021/08/14 10:41:36;;;;;;;;;9.00;8.33;;;;;;;;5169625;27;45388;-78
2021/08/14 10:44:03;;;;;;;;;5.00;5.00;;;;;;;;5169336;27;45219;-78
2021/08/14 10:46:34;;;;;;;;;6.33;5.33;;;;;;;;5169192;27;45410;-78
2021/08/14 10:49:00;;;;;;;;;8.00;6.00;;;;;;;;5169336;27;45339;-78
2021/08/14 10:51:44;;;;;;;;;4.67;4.67;;;;;;;;5169262;27;45386;-84
2021/08/14 10:54:09;;;;;;;;;8.00;7.00;;;;;;;;5168445;27;45538;-79
2021/08/14 10:56:49;;;;;;;;;7.33;7.00;;;;;;;;5168641;27;45381;-79
2021/08/14 10:59:34;;;;;;;;;7.67;7.33;;;;;;;;5148196;27;45456;-79
2021/08/14 11:01:59;;;;;;;;;6.00;5.67;;;;;;;;5164345;27;45448;-81
2021/08/14 11:04:37;;;;;;;;;8.00;8.00;;;;;;;;5161021;27;45208;-81
2021/08/14 11:07:20;;;;;;;;;7.33;6.00;;;;;;;;5149470;27;45657;-80
2021/08/14 11:10:07;;;;;;;;;10.00;8.00;;;;;;;;5147540;27;45542;-78
2021/08/14 11:12:34;;;;;;;;;8.00;6.00;;;;;;;;5147861;27;45525;-78
2021/08/14 11:15:17;;;;;;;;;4.67;4.67;;;;;;;;5155978;27;45292;-77
2021/08/14 11:17:44;;;;;;;;;7.67;6.00;;;;;;;;5147842;27;47789;-78
2021/08/14 11:20:19;;;;;;;;;9.33;8.33;;;;;;;;5146218;27;45389;-78
2021/08/14 11:22:44;;;;;;;;;6.67;5.33;;;;;;;;5166905;27;45407;-78
2021/08/14 11:25:22;;;;;;;;;6.67;5.67;;;;;;;;5166581;27;45645;-78
2021/08/14 11:28:00;;;;;;;;;8.00;8.00;;;;;;;;5165214;27;45293;-78
2021/08/14 11:30:31;;;;;;;;;9.00;6.67;;;;;;;;5158182;27;45405;-79
2021/08/14 11:32:56;;;;;;;;;9.00;7.00;;;;;;;;5161974;27;45321;-78
2021/08/14 11:35:23;;;;;;;;;9.33;9.33;;;;;;;;5164155;27;45348;-77
2021/08/14 11:37:49;;;;;;;;;5.33;5.33;;;;;;;;5165614;27;45272;-80
2021/08/14 11:40:14;;;;;;;;;8.33;7.67;;;;;;;;5165130;27;45907;-79
2021/08/14 11:42:40;;;;;;;;;7.67;7.67;;;;;;;;5164129;27;45309;-79
2021/08/14 11:45:05;;;;;;;;;8.00;8.00;;;;;;;;5163548;27;45279;-79
2021/08/14 11:47:35;;;;;;;;;7.33;6.67;;;;;;;;5164384;27;45414;-79
2021/08/14 11:50:01;;;;;;;;;8.33;7.00;;;;;;;;5164904;27;45381;-79
2021/08/14 11:52:27;;;;;;;;;7.67;7.00;;;;;;;;5163740;27;45406;-77
2021/08/14 11:55:02;;;;;;;;;10.33;7.33;;;;;;;;5162331;27;45418;-77
2021/08/14 11:57:29;;;;;;;;;6.67;5.67;;;;;;;;5145847;27;47109;-78
2021/08/14 11:59:54;;;;;;;;;10.33;9.00;;;;;;;;5164792;27;45204;-79
2021/08/14 12:02:22;;;;;;;;;5.67;5.67;;;;;;;;5162011;27;45619;-78
2021/08/14 12:04:48;;;;;;;;;9.67;8.00;;;;;;;;5162981;27;45619;-78
2021/08/14 12:07:13;;;;;;;;;8.00;7.00;;;;;;;;5164012;27;45326;-77
2021/08/14 12:09:38;;;;;;;;;8.67;8.00;;;;;;;;5164067;27;45463;-79
2021/08/14 12:12:04;;;;;;;;;8.00;8.00;;;;;;;;5162993;27;45329;-78
2021/08/14 12:14:29;;;;;;;;;10.33;9.33;;;;;;;;5164193;27;45340;-79
2021/08/14 12:16:59;;;;;;;;;9.00;6.67;;;;;;;;5163750;27;46186;-79
2021/08/14 12:19:25;;;;;;;;;9.67;7.33;;;;;;;;5163251;27;45404;-79
2021/08/14 12:22:08;;;;;;;;;8.00;8.00;;;;;;;;5144127;27;45470;-81
2021/08/14 12:24:33;;;;;;;;;6.33;6.33;;;;;;;;5161929;27;45350;-80
2021/08/14 12:26:58;;;;;;;;;9.00;9.00;;;;;;;;5164343;27;45158;-81
2021/08/14 12:29:24;;;;;;;;;6.33;6.33;;;;;;;;5163599;27;45546;-80
2021/08/14 12:31:55;;;;;;;;;8.67;8.67;;;;;;;;5163418;27;45252;-80
2021/08/14 12:34:21;;;;;;;;;6.33;6.00;;;;;;;;5163684;27;45267;-81
2021/08/14 12:36:46;;;;;;;;;8.67;7.00;;;;;;;;5163221;27;45320;-80
2021/08/14 12:39:11;;;;;;;;;9.00;9.00;;;;;;;;5163915;27;45347;-80
2021/08/14 12:41:41;;;;;;;;;9.00;9.00;;;;;;;;5164434;27;45359;-79
2021/08/14 12:44:07;;;;;;;;;8.00;7.67;;;;;;;;5161743;27;45426;-80
2021/08/14 12:46:32;;;;;;;;;10.00;8.00;;;;;;;;5162834;27;46166;-81
2021/08/14 12:49:17;;;;;;;;;8.00;8.00;;;;;;;;5162322;27;45606;-80
2021/08/14 12:51:42;;;;;;;;;8.00;7.33;;;;;;;;5162706;27;45461;-80
2021/08/14 12:54:11;;;;;;;;;8.33;8.33;;;;;;;;5162582;27;45410;-79
2021/08/14 12:56:38;;;;;;;;;8.67;8.00;;;;;;;;5164302;27;45229;-81
2021/08/14 12:59:04;;;;;;;;;8.67;8.67;;;;;;;;5164390;27;45235;-80
2021/08/14 13:01:29;;;;;;;;;8.67;7.33;;;;;;;;5164014;27;45223;-80
2021/08/14 13:03:55;;;;;;;;;9.00;9.00;;;;;;;;5164004;27;45166;-80
2021/08/14 13:06:20;;;;;;;;;9.67;9.67;;;;;;;;5163761;27;45170;-81
2021/08/14 13:08:45;;;;;;;;;5.00;5.00;;;;;;;;5163796;27;45158;-81
2021/08/14 13:11:11;;;;;;;;;8.00;7.00;;;;;;;;5163829;27;45260;-81
2021/08/14 13:13:36;;;;;;;;;10.00;8.00;;;;;;;;5163382;27;45308;-81
2021/08/14 13:16:01;;;;;;;;;5.33;5.33;;;;;;;;5163884;27;45694;-81
2021/08/14 13:18:27;;;;;;;;;8.67;8.00;;;;;;;;5164365;27;45410;-80
2021/08/14 13:20:52;;;;;;;;;8.00;8.00;;;;;;;;5163388;27;45403;-81
2021/08/14 13:23:17;;;;;;;;;6.33;6.33;;;;;;;;5163013;27;45470;-81
2021/08/14 13:25:43;;;;;;;;;8.67;8.67;;;;;;;;5163512;27;45311;-81
2021/08/14 13:28:09;;;;;;;;;9.67;7.33;;;;;;;;5164999;27;45322;-81
2021/08/14 13:30:35;;;;;;;;;9.00;9.00;;;;;;;;5163687;27;45404;-80
2021/08/14 13:33:00;;;;;;;;;9.00;9.00;;;;;;;;5163268;27;45329;-80
2021/08/14 13:35:26;;;;;;;;;9.00;9.00;;;;;;;;5163576;27;45271;-80
2021/08/14 13:37:51;;;;;;;;;8.33;8.33;;;;;;;;5163248;27;45291;-81
2021/08/14 13:40:17;;;;;;;;;9.33;7.33;;;;;;;;5163439;27;45463;-80
2021/08/14 13:42:43;;;;;;;;;9.00;9.00;;;;;;;;5163508;27;45221;-81
2021/08/14 13:45:09;;;;;;;;;8.00;8.00;;;;;;;;5163376;27;45204;-80
2021/08/14 13:47:36;;;;;;;;;8.67;8.67;;;;;;;;5163452;27;45202;-80
2021/08/14 13:50:01;;;;;;;;;8.33;8.33;;;;;;;;5163512;27;45324;-81
2021/08/14 13:52:26;;;;;;;;;7.00;7.00;;;;;;;;5162982;27;45301;-81
2021/08/14 13:54:52;;;;;;;;;8.33;8.33;;;;;;;;5163255;27;46183;-81
2021/08/14 13:57:17;;;;;;;;;9.33;8.00;;;;;;;;5163184;27;45308;-81
2021/08/14 13:59:42;;;;;;;;;8.33;8.33;;;;;;;;5163935;27;45366;-82
2021/08/14 14:02:11;;;;;;;;;10.00;10.00;;;;;;;;5162921;27;45316;-80
2021/08/14 14:04:37;;;;;;;;;9.00;8.00;;;;;;;;5163521;27;45283;-81
2021/08/14 14:07:02;;;;;;;;;8.00;7.33;;;;;;;;5160478;27;45649;-81
2021/08/14 14:09:30;;;;;;;;;9.00;8.33;;;;;;;;5163572;27;45292;-78
2021/08/14 14:11:59;;;;;;;;;7.00;7.00;;;;;;;;5159316;27;45347;-82
2021/08/14 14:14:25;;;;;;;;;7.00;7.00;;;;;;;;5162702;27;45429;-81
2021/08/14 14:16:51;;;;;;;;;8.67;8.67;;;;;;;;5162940;27;45674;-80
2021/08/14 14:19:16;;;;;;;;;9.67;8.33;;;;;;;;5163332;27;45498;-79
2021/08/14 14:21:41;;;;;;;;;8.00;7.33;;;;;;;;5162662;27;45546;-80
2021/08/14 14:24:07;;;;;;;;;8.00;7.00;;;;;;;;5164209;27;45241;-79
2021/08/14 14:26:32;;;;;;;;;8.00;8.00;;;;;;;;5162702;27;45289;-80
2021/08/14 14:28:57;;;;;;;;;8.00;8.00;;;;;;;;5162820;27;45323;-80
2021/08/14 14:31:23;;;;;;;;;9.67;9.33;;;;;;;;5143570;27;45165;-79
2021/08/14 14:33:48;;;;;;;;;8.00;8.00;;;;;;;;5162451;27;45264;-82
2021/08/14 14:36:14;;;;;;;;;8.67;8.67;;;;;;;;5164284;27;45309;-79
2021/08/14 14:38:39;;;;;;;;;7.33;6.67;;;;;;;;5165786;27;45140;-80